Time;durP1;ratioP1;P1;durP2;ratioP2;P2;SDS_P1;SDS_P2;PMS_P1;PMS_P2;Temp;Humidity;BMP_temperature;BMP_pressure;BME280_temperature;BME280_humidity;BME280_pressure;Samples;Min_cycle;Max_cycle;Signal;HPM_P1;HPM_P2
2022/12/01 00:00:45;;;;;;;24.52;10.27;;;;;;;;;;5091953;28;20028;-51
2022/12/01 00:03:11;;;;;;;22.73;10.10;;;;;;;;;;5098155;28;20035;-51
2022/12/01 00:05:37;;;;;;;24.42;10.18;;;;;;;;;;5090905;28;20493;-52
2022/12/01 00:08:04;;;;;;;25.30;10.85;;;;;;;;;;5094205;28;20080;-50
2022/12/01 00:10:31;;;;;;;27.20;11.40;;;;;;;;;;5104279;28;20039;-52
2022/12/01 00:13:01;;;;;;;34.08;13.73;;;;;;;;;;5111838;28;20038;-51
2022/12/01 00:15:33;;;;;;;21.17;9.20;;;;;;;;;;5111584;28;20487;-51
2022/12/01 00:17:59;;;;;;;16.77;8.68;;;;;;;;;;5111105;28;20012;-49
2022/12/01 00:20:25;;;;;;;15.85;7.93;;;;;;;;;;5112088;28;20031;-50
2022/12/01 00:22:51;;;;;;;17.52;8.93;;;;;;;;;;5110937;28;20487;-49
2022/12/01 00:25:18;;;;;;;18.05;8.20;;;;;;;;;;5095313;28;20024;-53
2022/12/01 00:27:48;;;;;;;12.85;7.13;;;;;;;;;;5090513;28;20107;-51
2022/12/01 00:30:14;;;;;;;11.27;6.13;;;;;;;;;;5090547;28;20102;-51
2022/12/01 00:32:40;;;;;;;10.35;5.57;;;;;;;;;;5090466;28;20028;-49
2022/12/01 00:35:06;;;;;;;10.18;5.97;;;;;;;;;;5090339;28;20028;-52
2022/12/01 00:37:33;;;;;;;8.02;5.32;;;;;;;;;;5089607;28;20052;-53
2022/12/01 00:39:59;;;;;;;8.02;5.13;;;;;;;;;;5103347;28;20027;-53
2022/12/01 00:42:25;;;;;;;8.23;4.82;;;;;;;;;;5107214;28;20055;-50
2022/12/01 00:44:51;;;;;;;7.75;4.57;;;;;;;;;;5090199;28;20032;-50
2022/12/01 00:47:17;;;;;;;7.40;4.72;;;;;;;;;;5089675;28;20097;-52
2022/12/01 00:49:47;;;;;;;7.70;4.63;;;;;;;;;;5089975;28;20120;-52
2022/12/01 00:52:13;;;;;;;7.28;4.60;;;;;;;;;;5090066;28;20066;-52
2022/12/01 00:54:40;;;;;;;6.82;4.20;;;;;;;;;;5094145;28;20011;-52
2022/12/01 00:57:06;;;;;;;7.85;4.55;;;;;;;;;;5110377;28;20031;-52
2022/12/01 00:59:32;;;;;;;6.80;4.28;;;;;;;;;;5110284;28;20020;-53
2022/12/01 01:01:58;;;;;;;7.35;4.78;;;;;;;;;;5110892;28;20024;-51
2022/12/01 06:11:40;;;;;;;11.20;7.25;;;;;;;;;;5089852;28;20507;-53
2022/12/01 06:14:06;;;;;;;12.35;6.65;;;;;;;;;;5090454;28;20070;-49
2022/12/01 06:16:32;;;;;;;10.82;6.68;;;;;;;;;;5094647;28;20032;-52
2022/12/01 06:18:58;;;;;;;13.25;7.50;;;;;;;;;;5093912;28;20036;-51
2022/12/01 06:21:24;;;;;;;11.60;7.30;;;;;;;;;;5090664;28;20436;-50
2022/12/01 06:23:50;;;;;;;12.88;7.20;;;;;;;;;;5090557;28;20028;-52
2022/12/01 06:26:16;;;;;;;10.27;6.57;;;;;;;;;;5089934;28;20032;-53
2022/12/01 06:28:42;;;;;;;11.23;6.90;;;;;;;;;;5090388;28;20070;-49
2022/12/01 06:31:08;;;;;;;13.65;7.50;;;;;;;;;;5090306;28;20506;-52
2022/12/01 06:33:34;;;;;;;12.05;6.78;;;;;;;;;;5092148;28;20034;-52
2022/12/01 06:36:01;;;;;;;12.25;7.13;;;;;;;;;;5099071;28;20507;-52
2022/12/01 06:38:29;;;;;;;11.98;6.90;;;;;;;;;;5094550;28;20024;-53
2022/12/01 06:40:55;;;;;;;12.70;7.72;;;;;;;;;;5094300;28;20028;-55
2022/12/01 06:43:21;;;;;;;11.85;7.43;;;;;;;;;;5104815;28;20020;-51
2022/12/01 06:45:47;;;;;;;12.00;7.05;;;;;;;;;;5100805;28;20020;-52
2022/12/01 06:48:13;;;;;;;12.60;7.47;;;;;;;;;;5106632;28;20035;-50
2022/12/01 06:50:39;;;;;;;11.18;7.13;;;;;;;;;;5107519;28;20031;-51
2022/12/01 06:53:05;;;;;;;10.73;6.90;;;;;;;;;;5117125;27;20110;-54
2022/12/01 06:55:32;;;;;;;12.25;7.30;;;;;;;;;;5114133;28;20439;-51
2022/12/01 06:57:59;;;;;;;9.57;6.05;;;;;;;;;;5114525;28;20026;-55
2022/12/01 07:00:25;;;;;;;10.98;6.60;;;;;;;;;;5108113;28;20510;-53
2022/12/01 07:02:51;;;;;;;14.82;8.75;;;;;;;;;;5094679;28;20470;-53
2022/12/01 07:05:17;;;;;;;13.43;7.40;;;;;;;;;;5094693;28;20028;-52
2022/12/01 07:07:43;;;;;;;13.32;7.72;;;;;;;;;;5096973;28;20084;-51
2022/12/01 07:10:10;;;;;;;12.00;7.13;;;;;;;;;;5111865;28;20032;-52
2022/12/01 07:12:36;;;;;;;9.48;6.18;;;;;;;;;;5092295;28;20046;-51
2022/12/01 07:15:02;;;;;;;9.63;6.13;;;;;;;;;;5094445;28;20069;-53
2022/12/01 07:17:29;;;;;;;8.15;5.43;;;;;;;;;;5094247;28;20039;-52
2022/12/01 07:19:54;;;;;;;8.85;5.57;;;;;;;;;;5083400;28;20024;-52
2022/12/01 07:22:20;;;;;;;8.68;5.72;;;;;;;;;;5092105;28;20034;-51
2022/12/01 07:24:47;;;;;;;10.77;6.45;;;;;;;;;;5094276;28;20402;-53
2022/12/01 07:27:13;;;;;;;9.80;6.18;;;;;;;;;;5094252;28;20024;-52
2022/12/01 07:29:39;;;;;;;9.23;6.30;;;;;;;;;;5092709;28;20032;-53
2022/12/01 07:32:05;;;;;;;8.32;5.40;;;;;;;;;;5082777;28;20028;-53
2022/12/01 07:34:31;;;;;;;7.80;5.40;;;;;;;;;;5093827;28;20390;-50
2022/12/01 07:36:57;;;;;;;10.43;5.95;;;;;;;;;;5094294;28;20116;-53
2022/12/01 07:39:23;;;;;;;7.43;4.85;;;;;;;;;;5086716;28;20060;-50
2022/12/01 07:41:49;;;;;;;8.15;5.53;;;;;;;;;;5073154;28;20064;-52
2022/12/01 07:44:15;;;;;;;8.90;5.43;;;;;;;;;;5073749;28;20024;-53
2022/12/01 07:46:41;;;;;;;9.07;5.75;;;;;;;;;;5073354;28;20030;-52
2022/12/01 07:49:10;;;;;;;8.98;5.60;;;;;;;;;;5088672;28;20036;-53
2022/12/01 07:51:36;;;;;;;9.05;5.47;;;;;;;;;;5088117;28;20040;-53
2022/12/01 07:54:04;;;;;;;8.85;5.97;;;;;;;;;;5085077;28;20522;-54
2022/12/01 07:56:30;;;;;;;8.10;5.25;;;;;;;;;;5082234;28;20036;-53
2022/12/01 07:58:56;;;;;;;7.38;5.15;;;;;;;;;;5083838;28;20058;-51
2022/12/01 08:01:23;;;;;;;9.15;5.95;;;;;;;;;;5081307;28;20032;-50
2022/12/01 08:03:50;;;;;;;8.18;5.07;;;;;;;;;;5085765;28;20349;-52
2022/12/01 08:06:17;;;;;;;8.23;4.97;;;;;;;;;;5091883;28;20024;-52
2022/12/01 08:08:43;;;;;;;8.30;5.53;;;;;;;;;;5092411;28;20020;-53
2022/12/01 08:11:14;;;;;;;8.60;5.63;;;;;;;;;;5100289;28;20055;-53
2022/12/01 08:13:40;;;;;;;9.55;5.35;;;;;;;;;;5099386;28;20027;-53
2022/12/01 08:16:07;;;;;;;10.30;7.22;;;;;;;;;;5086457;28;20442;-52
2022/12/01 08:18:40;;;;;;;11.43;7.68;;;;;;;;;;5103476;28;20024;-52
2022/12/01 08:21:07;;;;;;;10.77;7.20;;;;;;;;;;5110790;28;20027;-52
2022/12/01 08:23:33;;;;;;;10.38;6.75;;;;;;;;;;5111619;28;20027;-53
2022/12/01 08:26:00;;;;;;;10.38;6.55;;;;;;;;;;5111655;28;20540;-53
2022/12/01 08:28:26;;;;;;;11.48;6.70;;;;;;;;;;5110163;28;20019;-51
2022/12/01 08:30:52;;;;;;;10.20;5.88;;;;;;;;;;5110960;28;20026;-52
2022/12/01 08:33:18;;;;;;;9.43;5.80;;;;;;;;;;5111846;28;20072;-52
2022/12/01 08:35:44;;;;;;;10.05;6.45;;;;;;;;;;5101416;28;20417;-50
2022/12/01 08:38:11;;;;;;;9.85;6.78;;;;;;;;;;5091153;28;20029;-52
2022/12/01 08:40:37;;;;;;;9.15;6.10;;;;;;;;;;5092116;28;20028;-54
2022/12/01 08:43:03;;;;;;;9.35;6.07;;;;;;;;;;5091264;28;20386;-52
2022/12/01 08:45:29;;;;;;;9.05;6.00;;;;;;;;;;5090888;28;20111;-51
2022/12/01 08:47:57;;;;;;;8.70;5.72;;;;;;;;;;5093094;28;20424;-52
2022/12/01 08:50:24;;;;;;;8.52;6.03;;;;;;;;;;5091958;28;20123;-53
2022/12/01 08:52:50;;;;;;;8.30;5.80;;;;;;;;;;5092052;28;20020;-50
2022/12/01 08:55:16;;;;;;;8.88;5.97;;;;;;;;;;5091835;28;20085;-53
2022/12/01 08:57:42;;;;;;;7.22;5.13;;;;;;;;;;5096107;28;20020;-53
2022/12/01 09:00:09;;;;;;;8.45;5.10;;;;;;;;;;5109022;28;20038;-52
2022/12/01 09:02:35;;;;;;;7.30;4.85;;;;;;;;;;5110530;28;20142;-51
2022/12/01 09:05:01;;;;;;;9.88;5.22;;;;;;;;;;5110301;28;20055;-49
2022/12/01 09:07:27;;;;;;;8.27;5.13;;;;;;;;;;5110315;28;20094;-52
2022/12/01 09:09:53;;;;;;;7.22;4.82;;;;;;;;;;5110030;28;20115;-52
2022/12/01 09:12:19;;;;;;;7.40;4.85;;;;;;;;;;5108733;28;20053;-52
2022/12/01 09:14:47;;;;;;;7.75;5.32;;;;;;;;;;5105565;28;20447;-54
2022/12/01 09:17:14;;;;;;;6.78;4.55;;;;;;;;;;5108619;28;20487;-52
2022/12/01 09:19:40;;;;;;;7.78;5.22;;;;;;;;;;5109470;28;20442;-54
2022/12/01 09:22:06;;;;;;;8.85;5.53;;;;;;;;;;5108902;28;20513;-53
2022/12/01 09:24:32;;;;;;;6.45;4.32;;;;;;;;;;5106886;28;20101;-53
2022/12/01 09:26:58;;;;;;;7.55;4.95;;;;;;;;;;5105055;28;20023;-53
2022/12/01 09:29:25;;;;;;;9.77;6.32;;;;;;;;;;5108752;28;20035;-53
2022/12/01 09:31:54;;;;;;;7.95;5.25;;;;;;;;;;5104013;28;20050;-53
2022/12/01 09:34:20;;;;;;;8.80;5.60;;;;;;;;;;5104973;28;20027;-52
2022/12/01 09:36:46;;;;;;;9.77;5.53;;;;;;;;;;5108173;28;20059;-53
2022/12/01 09:39:13;;;;;;;9.93;6.15;;;;;;;;;;5105518;28;20031;-54
2022/12/01 09:41:45;;;;;;;7.88;5.28;;;;;;;;;;5089884;28;20020;-52
2022/12/01 09:44:15;;;;;;;8.50;5.63;;;;;;;;;;5090040;28;20028;-53
2022/12/01 09:47:00;;;;;;;7.57;5.22;;;;;;;;;;5090030;28;20012;-53
2022/12/01 09:49:33;;;;;;;8.00;5.40;;;;;;;;;;5108967;28;20039;-51
2022/12/01 09:51:59;;;;;;;6.53;4.70;;;;;;;;;;5109652;28;20032;-54
2022/12/01 09:54:28;;;;;;;6.72;4.50;;;;;;;;;;5107705;28;20295;-53
2022/12/01 09:56:54;;;;;;;7.90;5.22;;;;;;;;;;5109335;28;20030;-51
2022/12/01 09:59:22;;;;;;;9.43;5.47;;;;;;;;;;5109598;28;20023;-53
2022/12/01 10:01:50;;;;;;;8.07;5.25;;;;;;;;;;5109496;28;20016;-53
2022/12/01 10:04:19;;;;;;;8.55;5.10;;;;;;;;;;5109379;28;20024;-53
2022/12/01 10:06:53;;;;;;;10.00;5.88;;;;;;;;;;5104505;28;20026;-53
2022/12/01 10:09:19;;;;;;;;;;;;;;;;;;5103370;28;20027;-53
2022/12/01 10:11:46;;;;;;;11.55;6.70;;;;;;;;;;5089883;28;19994;-52
2022/12/01 10:14:17;;;;;;;12.38;7.35;;;;;;;;;;5100862;28;20101;-53
2022/12/01 10:16:49;;;;;;;12.52;7.13;;;;;;;;;;5097075;28;20074;-53
2022/12/01 10:19:30;;;;;;;12.38;7.25;;;;;;;;;;5101450;28;20042;-54
2022/12/01 10:22:14;;;;;;;15.23;8.43;;;;;;;;;;5097200;28;20036;-53
2022/12/01 10:24:47;;;;;;;14.77;7.97;;;;;;;;;;5077217;28;20798;-53
2022/12/01 10:27:28;;;;;;;12.77;7.32;;;;;;;;;;5099557;28;20537;-52
2022/12/01 10:30:17;;;;;;;10.95;6.30;;;;;;;;;;5102325;28;20524;-53
2022/12/01 10:32:47;;;;;;;10.35;5.97;;;;;;;;;;5087114;28;20514;-53
2022/12/01 10:35:17;;;;;;;10.55;6.45;;;;;;;;;;5096483;28;20036;-53
2022/12/01 10:37:44;;;;;;;10.30;7.15;;;;;;;;;;5099588;28;20043;-53
2022/12/01 10:40:14;;;;;;;15.20;9.00;;;;;;;;;;5099341;28;20473;-50
2022/12/01 10:42:44;;;;;;;13.10;8.30;;;;;;;;;;5100167;28;20031;-53
2022/12/01 10:45:31;;;;;;;13.20;8.05;;;;;;;;;;5095447;28;20034;-53
2022/12/01 10:48:06;;;;;;;11.50;7.10;;;;;;;;;;5097092;28;20036;-53
2022/12/01 10:50:33;;;;;;;11.07;6.53;;;;;;;;;;5099357;28;20039;-52
2022/12/01 10:52:59;;;;;;;7.82;5.70;;;;;;;;;;5096634;28;20023;-54
2022/12/01 10:55:26;;;;;;;8.57;5.50;;;;;;;;;;5094994;28;20032;-54
2022/12/01 10:57:54;;;;;;;9.70;5.75;;;;;;;;;;5099303;28;20036;-54
2022/12/01 11:00:28;;;;;;;9.38;5.82;;;;;;;;;;5097996;28;20068;-54
2022/12/01 11:02:54;;;;;;;14.13;7.60;;;;;;;;;;5099784;28;20027;-54
2022/12/01 11:05:23;;;;;;;16.25;8.13;;;;;;;;;;5096324;28;20029;-53
2022/12/01 11:07:49;;;;;;;15.68;7.85;;;;;;;;;;5099248;28;20564;-53
2022/12/01 11:10:18;;;;;;;13.00;7.10;;;;;;;;;;5093734;28;20043;-53
2022/12/01 11:12:52;;;;;;;14.07;7.78;;;;;;;;;;5075887;28;20032;-53
2022/12/01 11:15:20;;;;;;;13.00;6.70;;;;;;;;;;5071963;28;20184;-53
2022/12/01 11:17:47;;;;;;;11.57;6.70;;;;;;;;;;5076577;28;20061;-53
2022/12/01 11:20:27;;;;;;;13.27;7.35;;;;;;;;;;5059599;28;20728;-54
2022/12/01 11:23:14;;;;;;;16.05;9.35;;;;;;;;;;5085838;28;20054;-54
2022/12/01 11:25:40;;;;;;;13.80;8.38;;;;;;;;;;5073775;28;20017;-55
2022/12/01 11:28:06;;;;;;;15.07;8.88;;;;;;;;;;5082904;28;20070;-53
2022/12/01 11:30:33;;;;;;;14.48;8.65;;;;;;;;;;5079095;28;20263;-52
2022/12/01 11:33:00;;;;;;;14.27;8.52;;;;;;;;;;5083336;28;20034;-53
2022/12/01 11:35:29;;;;;;;11.13;6.95;;;;;;;;;;5080994;28;20070;-54
2022/12/01 11:37:56;;;;;;;10.25;6.82;;;;;;;;;;5082839;28;20036;-53
2022/12/01 11:40:24;;;;;;;10.43;6.53;;;;;;;;;;5082705;28;20151;-53
2022/12/01 11:42:51;;;;;;;9.90;6.35;;;;;;;;;;5082691;28;20036;-53
2022/12/01 11:45:20;;;;;;;7.85;5.00;;;;;;;;;;5080883;28;20032;-55
2022/12/01 11:48:05;;;;;;;11.02;6.10;;;;;;;;;;5084951;28;20079;-53
2022/12/01 11:50:31;;;;;;;;;;;;;;;;;;5083770;28;20347;-52
2022/12/01 11:52:57;;;;;;;7.97;5.07;;;;;;;;;;5084642;28;20002;-52
2022/12/01 11:55:25;;;;;;;9.20;5.75;;;;;;;;;;5082628;28;20150;-54
2022/12/01 11:57:53;;;;;;;7.78;5.05;;;;;;;;;;5084076;28;20067;-54
2022/12/01 12:00:28;;;;;;;8.07;5.50;;;;;;;;;;5063942;28;20067;-53
2022/12/01 12:03:00;;;;;;;6.35;4.47;;;;;;;;;;5084874;28;20028;-53
2022/12/01 12:05:44;;;;;;;7.40;4.75;;;;;;;;;;5079479;28;20120;-52
2022/12/01 12:08:10;;;;;;;;;;;;;;;;;;5084411;28;20024;-52
2022/12/01 12:10:55;;;;;;;8.15;4.53;;;;;;;;;;5087572;28;19985;-53
2022/12/01 12:13:30;;;;;;;6.10;4.32;;;;;;;;;;5105584;27;20391;-54
2022/12/01 12:15:56;;;;;;;6.65;4.05;;;;;;;;;;5101249;28;20047;-53
2022/12/01 12:18:41;;;;;;;7.10;4.32;;;;;;;;;;5104321;28;20039;-54
2022/12/01 12:21:26;;;;;;;7.38;4.57;;;;;;;;;;5102102;28;20024;-54
2022/12/01 12:24:10;;;;;;;6.53;4.13;;;;;;;;;;5104427;28;20032;-53
2022/12/01 12:26:55;;;;;;;6.50;4.05;;;;;;;;;;5098194;28;20414;-53
2022/12/01 12:29:29;;;;;;;6.72;4.38;;;;;;;;;;5099639;28;20179;-53
2022/12/01 12:32:06;;;;;;;5.28;3.63;;;;;;;;;;5102513;28;20028;-54
2022/12/01 12:34:51;;;;;;;5.60;4.18;;;;;;;;;;5102708;28;20118;-54
2022/12/01 12:37:23;;;;;;;6.38;3.72;;;;;;;;;;5102873;28;20031;-53
2022/12/01 12:39:49;;;;;;;6.38;4.10;;;;;;;;;;5103456;28;20036;-54
2022/12/01 12:42:34;;;;;;;5.47;3.85;;;;;;;;;;5100318;27;20070;-55
2022/12/01 12:45:14;;;;;;;6.40;4.18;;;;;;;;;;5103097;28;20028;-54
2022/12/01 12:47:49;;;;;;;6.78;4.22;;;;;;;;;;5102745;28;20012;-55
2022/12/01 12:50:21;;;;;;;6.30;4.28;;;;;;;;;;5103317;28;20045;-54
2022/12/01 12:52:53;;;;;;;6.97;4.50;;;;;;;;;;5104475;27;20028;-53
2022/12/01 12:55:22;;;;;;;7.72;4.80;;;;;;;;;;5101276;28;20032;-55
2022/12/01 12:57:58;;;;;;;6.97;4.40;;;;;;;;;;5102616;28;20110;-55
2022/12/01 13:00:26;;;;;;;8.10;4.63;;;;;;;;;;5076852;28;20031;-55
2022/12/01 13:03:04;;;;;;;10.05;5.63;;;;;;;;;;5089252;28;20040;-55
2022/12/01 13:05:43;;;;;;;10.77;6.22;;;;;;;;;;5091124;28;20019;-55
2022/12/01 13:08:31;;;;;;;11.88;6.38;;;;;;;;;;5103339;28;20026;-55
2022/12/01 13:11:02;;;;;;;10.95;5.90;;;;;;;;;;5102420;28;20530;-55
2022/12/01 13:13:28;;;;;;;11.48;6.65;;;;;;;;;;5103886;28;21156;-54
2022/12/01 13:15:55;;;;;;;10.38;5.88;;;;;;;;;;5100294;28;20088;-55
2022/12/01 13:18:27;;;;;;;8.77;5.35;;;;;;;;;;5103997;28;20042;-55
2022/12/01 13:20:55;;;;;;;10.52;5.75;;;;;;;;;;5101481;28;20028;-54
2022/12/01 13:23:21;;;;;;;9.05;5.60;;;;;;;;;;5100156;28;20032;-54
2022/12/01 13:25:50;;;;;;;8.20;5.18;;;;;;;;;;5097142;28;20055;-55
2022/12/01 13:28:27;;;;;;;8.02;4.78;;;;;;;;;;5099174;28;20031;-54
2022/12/01 13:31:01;;;;;;;6.35;4.40;;;;;;;;;;5102465;28;20059;-55
2022/12/01 13:33:27;;;;;;;7.22;4.78;;;;;;;;;;5102283;28;20036;-55
2022/12/01 13:35:54;;;;;;;6.80;5.00;;;;;;;;;;5100627;28;20152;-54
2022/12/01 13:38:31;;;;;;;6.95;5.03;;;;;;;;;;5102862;28;20035;-56
2022/12/01 13:41:16;;;;;;;5.78;4.10;;;;;;;;;;5094402;28;20557;-53
2022/12/01 13:43:57;;;;;;;6.05;4.45;;;;;;;;;;5083816;28;20073;-54
2022/12/01 13:46:25;;;;;;;7.47;4.85;;;;;;;;;;5100665;28;20043;-54
2022/12/01 13:48:53;;;;;;;6.60;3.75;;;;;;;;;;5103432;28;20035;-54
2022/12/01 13:51:19;;;;;;;5.47;4.00;;;;;;;;;;5101729;28;20047;-55
2022/12/01 13:53:56;;;;;;;5.68;3.50;;;;;;;;;;5102929;28;20044;-56
2022/12/01 13:56:26;;;;;;;8.38;4.38;;;;;;;;;;5096081;28;20035;-55
2022/12/01 13:58:53;;;;;;;5.00;3.38;;;;;;;;;;5104460;27;20031;-55
2022/12/01 14:01:19;;;;;;;5.50;3.60;;;;;;;;;;5097927;28;20035;-53
2022/12/01 14:03:55;;;;;;;5.85;3.80;;;;;;;;;;5101242;28;20687;-54
2022/12/01 14:06:25;;;;;;;4.88;3.60;;;;;;;;;;5095137;28;20122;-55
2022/12/01 14:08:52;;;;;;;5.00;3.42;;;;;;;;;;5099952;28;20418;-55
2022/12/01 14:11:25;;;;;;;5.57;3.75;;;;;;;;;;5096394;28;20050;-55
2022/12/01 14:13:56;;;;;;;4.88;3.50;;;;;;;;;;5102069;28;20028;-55
2022/12/01 14:16:22;;;;;;;6.30;3.65;;;;;;;;;;5100657;28;20403;-55
2022/12/01 14:18:50;;;;;;;5.85;3.92;;;;;;;;;;5103107;28;20155;-55
2022/12/01 14:21:16;;;;;;;5.88;4.20;;;;;;;;;;5101076;28;20035;-55
2022/12/01 14:23:59;;;;;;;5.03;3.40;;;;;;;;;;5102782;28;20050;-54
2022/12/01 14:26:27;;;;;;;7.32;3.70;;;;;;;;;;5101179;28;20688;-56
2022/12/01 14:28:59;;;;;;;5.97;3.80;;;;;;;;;;5101318;28;20049;-54
2022/12/01 14:31:34;;;;;;;5.82;3.92;;;;;;;;;;5101953;28;20047;-55
2022/12/01 14:34:04;;;;;;;5.32;3.75;;;;;;;;;;5100504;28;20039;-54
2022/12/01 14:36:39;;;;;;;5.13;3.63;;;;;;;;;;5101208;28;20509;-55
2022/12/01 14:39:05;;;;;;;6.07;3.30;;;;;;;;;;5103022;28;20506;-54
2022/12/01 14:41:41;;;;;;;4.63;3.58;;;;;;;;;;5102315;28;20032;-55
2022/12/01 14:44:22;;;;;;;5.28;3.90;;;;;;;;;;5100921;28;20024;-54
2022/12/01 14:46:51;;;;;;;5.32;3.40;;;;;;;;;;5097302;28;20583;-55
2022/12/01 14:49:21;;;;;;;4.60;3.25;;;;;;;;;;5102014;28;20039;-57
2022/12/01 14:51:50;;;;;;;6.00;3.65;;;;;;;;;;5101413;28;20050;-55
2022/12/01 14:54:20;;;;;;;4.65;3.13;;;;;;;;;;5100591;28;20616;-55
2022/12/01 14:56:47;;;;;;;4.57;3.20;;;;;;;;;;5101022;28;20032;-55
2022/12/01 14:59:25;;;;;;;4.70;3.17;;;;;;;;;;5106494;27;20601;-55
2022/12/01 15:01:52;;;;;;;4.85;3.03;;;;;;;;;;5105188;28;20035;-55
2022/12/01 15:04:19;;;;;;;7.22;4.20;;;;;;;;;;5104125;28;20028;-54
2022/12/01 15:06:45;;;;;;;6.95;4.88;;;;;;;;;;5104435;28;20028;-55
2022/12/01 15:09:16;;;;;;;6.93;4.65;;;;;;;;;;5105397;27;20035;-55
2022/12/01 15:11:53;;;;;;;7.22;4.72;;;;;;;;;;5105403;28;20043;-55
2022/12/01 15:14:33;;;;;;;7.07;4.68;;;;;;;;;;5101923;28;20028;-55
2022/12/01 15:17:01;;;;;;;5.15;3.72;;;;;;;;;;5109893;28;20448;-54
2022/12/01 15:19:27;;;;;;;5.55;4.20;;;;;;;;;;5107842;28;20058;-54
2022/12/01 15:21:53;;;;;;;5.60;3.97;;;;;;;;;;5087965;27;20163;-55
2022/12/01 15:24:21;;;;;;;7.95;4.63;;;;;;;;;;5095315;28;20027;-56
2022/12/01 15:26:49;;;;;;;5.82;3.83;;;;;;;;;;5101019;28;20028;-55
2022/12/01 15:29:18;;;;;;;5.10;3.58;;;;;;;;;;5099466;28;20035;-55
2022/12/01 15:31:45;;;;;;;4.93;4.05;;;;;;;;;;5109473;28;20176;-55
2022/12/01 15:34:16;;;;;;;5.05;3.58;;;;;;;;;;5113010;28;20023;-55
2022/12/01 15:36:43;;;;;;;5.82;3.58;;;;;;;;;;5113023;28;20085;-55
2022/12/01 15:39:16;;;;;;;5.65;3.50;;;;;;;;;;5112427;28;20020;-54
2022/12/01 15:41:43;;;;;;;5.13;3.50;;;;;;;;;;5112084;28;20035;-55
2022/12/01 15:44:26;;;;;;;4.07;3.05;;;;;;;;;;5112839;28;20012;-55
2022/12/01 15:46:52;;;;;;;4.95;3.33;;;;;;;;;;5106960;28;20035;-55
2022/12/01 15:49:28;;;;;;;4.80;3.40;;;;;;;;;;5092393;28;20024;-55
2022/12/01 15:52:03;;;;;;;5.47;3.55;;;;;;;;;;5092395;28;20020;-55
2022/12/01 15:54:30;;;;;;;4.43;3.40;;;;;;;;;;5092153;28;20509;-55
2022/12/01 15:56:57;;;;;;;5.88;3.65;;;;;;;;;;5092303;28;20032;-55
2022/12/01 15:59:29;;;;;;;4.55;3.25;;;;;;;;;;5093103;28;20027;-55
2022/12/01 16:01:56;;;;;;;6.00;3.70;;;;;;;;;;5091830;28;20028;-54
2022/12/01 16:04:26;;;;;;;4.95;3.25;;;;;;;;;;5091114;28;20483;-55
2022/12/01 16:07:03;;;;;;;5.72;3.60;;;;;;;;;;5091122;28;20024;-56
2022/12/01 16:09:32;;;;;;;5.35;3.47;;;;;;;;;;5092673;28;20094;-55
2022/12/01 16:12:16;;;;;;;5.30;3.67;;;;;;;;;;5091865;28;20024;-56
2022/12/01 16:14:50;;;;;;;4.75;3.28;;;;;;;;;;5091340;28;20480;-54
2022/12/01 16:17:16;;;;;;;5.25;3.22;;;;;;;;;;5090804;28;20546;-55
2022/12/01 16:19:44;;;;;;;6.15;3.72;;;;;;;;;;5090803;28;20035;-55
2022/12/01 16:22:10;;;;;;;5.97;3.70;;;;;;;;;;5091594;28;20024;-55
2022/12/01 16:24:42;;;;;;;5.13;3.60;;;;;;;;;;5091120;28;20099;-55
2022/12/01 16:27:17;;;;;;;6.95;4.10;;;;;;;;;;5091277;28;20025;-55
2022/12/01 16:29:51;;;;;;;4.90;3.42;;;;;;;;;;5091733;28;20028;-55
2022/12/01 16:32:17;;;;;;;;;;;;;;;;;;5111498;28;20398;-55
2022/12/01 16:34:44;;;;;;;7.32;4.13;;;;;;;;;;5110975;28;19904;-55
2022/12/01 16:37:11;;;;;;;5.55;3.75;;;;;;;;;;5111480;28;20028;-56
2022/12/01 16:39:37;;;;;;;5.68;4.05;;;;;;;;;;5111460;28;20103;-55
2022/12/01 16:42:03;;;;;;;6.22;4.07;;;;;;;;;;5110832;28;20023;-55
2022/12/01 16:44:30;;;;;;;6.00;3.80;;;;;;;;;;5103385;28;20054;-54
2022/12/01 16:46:57;;;;;;;5.90;3.95;;;;;;;;;;5094355;28;20040;-55
2022/12/01 16:49:23;;;;;;;5.00;3.35;;;;;;;;;;5109215;27;20069;-55
2022/12/01 16:51:49;;;;;;;5.03;3.63;;;;;;;;;;5108949;28;20277;-54
2022/12/01 16:54:15;;;;;;;5.88;3.97;;;;;;;;;;5107870;28;20020;-54
2022/12/01 16:56:41;;;;;;;5.32;3.40;;;;;;;;;;5095441;28;20024;-54
2022/12/01 16:59:08;;;;;;;6.07;3.90;;;;;;;;;;5107702;28;20489;-54
2022/12/01 17:01:34;;;;;;;5.32;3.08;;;;;;;;;;5100526;28;20032;-55
2022/12/01 17:04:00;;;;;;;6.07;3.80;;;;;;;;;;5110050;28;20020;-54
2022/12/01 17:06:26;;;;;;;6.40;4.30;;;;;;;;;;5106522;28;20660;-54
2022/12/01 17:08:52;;;;;;;6.00;3.92;;;;;;;;;;5101865;28;20020;-54
2022/12/01 17:11:18;;;;;;;7.38;4.70;;;;;;;;;;5103033;28;20047;-55
2022/12/01 17:13:44;;;;;;;7.93;4.70;;;;;;;;;;5102820;28;20123;-54
2022/12/01 17:16:11;;;;;;;11.38;6.05;;;;;;;;;;5100159;28;20459;-53
2022/12/01 17:18:37;;;;;;;12.50;6.63;;;;;;;;;;5101695;28;20051;-54
2022/12/01 17:21:05;;;;;;;14.85;7.65;;;;;;;;;;5102549;28;20546;-54
2022/12/01 17:23:31;;;;;;;12.15;7.05;;;;;;;;;;5101429;28;20028;-54
2022/12/01 17:25:58;;;;;;;14.98;7.95;;;;;;;;;;5101082;28;20059;-54
2022/12/01 17:28:24;;;;;;;13.80;7.25;;;;;;;;;;5097829;28;20479;-55
2022/12/01 17:30:50;;;;;;;9.88;5.90;;;;;;;;;;5101256;28;20040;-54
2022/12/01 17:33:16;;;;;;;13.00;7.03;;;;;;;;;;5096674;28;20035;-55
2022/12/01 17:35:43;;;;;;;9.77;5.88;;;;;;;;;;5099876;28;20468;-55
2022/12/01 17:38:09;;;;;;;9.40;5.88;;;;;;;;;;5098908;28;20092;-56
2022/12/01 17:40:35;;;;;;;10.13;5.63;;;;;;;;;;5097919;28;20039;-55
2022/12/01 17:43:01;;;;;;;9.52;5.90;;;;;;;;;;5101353;28;20035;-56
2022/12/01 17:45:27;;;;;;;9.80;5.47;;;;;;;;;;5100119;28;20092;-56
2022/12/01 17:47:54;;;;;;;9.05;5.05;;;;;;;;;;5097282;28;20718;-57
2022/12/01 17:50:20;;;;;;;8.35;4.85;;;;;;;;;;5098851;28;20138;-56
2022/12/01 17:52:46;;;;;;;8.57;4.93;;;;;;;;;;5105450;28;20027;-57
2022/12/01 17:55:12;;;;;;;9.57;5.70;;;;;;;;;;5099705;28;20027;-55
2022/12/01 17:57:38;;;;;;;9.13;5.10;;;;;;;;;;5103605;28;20020;-57
2022/12/01 18:00:05;;;;;;;7.57;4.35;;;;;;;;;;5095594;28;20458;-57
2022/12/01 18:02:32;;;;;;;8.55;5.07;;;;;;;;;;5091606;28;20015;-54
2022/12/01 18:04:58;;;;;;;7.07;4.72;;;;;;;;;;5097833;28;20448;-56
2022/12/01 18:07:24;;;;;;;6.97;4.10;;;;;;;;;;5096712;28;20054;-56
2022/12/01 18:09:50;;;;;;;7.28;4.47;;;;;;;;;;5102520;28;20509;-56
2022/12/01 18:12:16;;;;;;;8.45;5.03;;;;;;;;;;5082573;28;20089;-56
2022/12/01 18:14:42;;;;;;;7.72;4.60;;;;;;;;;;5074028;28;20488;-57
2022/12/01 18:17:08;;;;;;;6.82;4.53;;;;;;;;;;5078146;28;20506;-57
2022/12/01 18:19:34;;;;;;;9.35;5.88;;;;;;;;;;5055893;28;20035;-55
2022/12/01 18:22:00;;;;;;;8.82;5.10;;;;;;;;;;5108672;28;20043;-57
2022/12/01 18:24:26;;;;;;;6.97;4.40;;;;;;;;;;5060645;28;20064;-57
2022/12/01 18:26:54;;;;;;;7.60;4.88;;;;;;;;;;5092838;28;20486;-57
2022/12/01 18:29:24;;;;;;;7.57;4.57;;;;;;;;;;5076230;28;20098;-56
2022/12/01 18:31:57;;;;;;;7.15;4.72;;;;;;;;;;5070219;28;20025;-56
2022/12/01 18:34:23;;;;;;;7.20;4.22;;;;;;;;;;5086297;28;20106;-56
2022/12/01 18:36:49;;;;;;;6.28;3.70;;;;;;;;;;5086381;28;20526;-57
2022/12/01 18:39:15;;;;;;;5.50;3.80;;;;;;;;;;5072651;28;20051;-56
2022/12/01 18:41:41;;;;;;;7.35;4.28;;;;;;;;;;5094157;28;20104;-56
2022/12/01 18:44:07;;;;;;;6.75;4.22;;;;;;;;;;5080178;28;20082;-54
2022/12/01 18:46:33;;;;;;;7.95;4.63;;;;;;;;;;5074924;28;20483;-56
2022/12/01 18:49:01;;;;;;;6.78;3.83;;;;;;;;;;5075921;28;20036;-56
2022/12/01 18:51:28;;;;;;;6.40;4.22;;;;;;;;;;5080487;28;20019;-55
2022/12/01 18:53:55;;;;;;;5.28;3.22;;;;;;;;;;5079019;28;20055;-56
2022/12/01 18:56:21;;;;;;;4.50;3.10;;;;;;;;;;5090033;28;20104;-55
2022/12/01 18:58:47;;;;;;;5.63;3.60;;;;;;;;;;5096700;28;20032;-56
2022/12/01 19:01:19;;;;;;;6.40;3.92;;;;;;;;;;5079731;28;20412;-56
2022/12/01 19:03:46;;;;;;;6.22;3.63;;;;;;;;;;5086851;28;20172;-56
2022/12/01 19:06:12;;;;;;;7.90;4.50;;;;;;;;;;5082654;28;20028;-57
2022/12/01 19:08:38;;;;;;;11.18;5.70;;;;;;;;;;5074084;28;20031;-56
2022/12/01 19:11:05;;;;;;;12.70;6.50;;;;;;;;;;5091270;28;20022;-56
2022/12/01 19:13:31;;;;;;;11.55;5.85;;;;;;;;;;5096664;28;20547;-56
2022/12/01 19:15:57;;;;;;;10.80;5.63;;;;;;;;;;5098207;28;20020;-55
2022/12/01 19:18:24;;;;;;;13.85;5.78;;;;;;;;;;5104097;28;20039;-58
2022/12/01 19:20:50;;;;;;;21.55;9.57;;;;;;;;;;5078242;28;20558;-55
2022/12/01 19:23:16;;;;;;;20.77;8.90;;;;;;;;;;5100437;28;20036;-56
2022/12/01 19:25:42;;;;;;;22.10;9.68;;;;;;;;;;5097780;28;20111;-56
2022/12/01 19:28:08;;;;;;;27.30;11.68;;;;;;;;;;5098311;28;20020;-56
2022/12/01 19:30:34;;;;;;;23.73;10.00;;;;;;;;;;5083877;28;20039;-56
2022/12/01 19:33:00;;;;;;;18.30;8.55;;;;;;;;;;5098970;28;20085;-55
2022/12/01 19:35:26;;;;;;;17.77;8.55;;;;;;;;;;5108675;28;20793;-57
2022/12/01 19:37:52;;;;;;;18.98;9.00;;;;;;;;;;5095168;28;20028;-55
2022/12/01 19:40:18;;;;;;;17.90;9.23;;;;;;;;;;5102268;28;20588;-56
2022/12/01 19:42:44;;;;;;;19.02;9.30;;;;;;;;;;5106046;28;20198;-57
2022/12/01 19:45:10;;;;;;;19.98;9.10;;;;;;;;;;5097303;28;20032;-56
2022/12/01 19:47:38;;;;;;;14.55;7.32;;;;;;;;;;5108095;28;20037;-56
2022/12/01 19:50:04;;;;;;;12.30;6.82;;;;;;;;;;5075869;28;20077;-57
2022/12/01 19:52:30;;;;;;;11.00;6.03;;;;;;;;;;5104353;28;20100;-56
2022/12/01 19:54:56;;;;;;;10.95;6.57;;;;;;;;;;5086154;28;20031;-56
2022/12/01 19:57:22;;;;;;;10.75;6.13;;;;;;;;;;5080647;28;20027;-55